sensor_id;sensor_type;location;lat;lon;timestamp;P1;durP1;ratioP1;P2;durP2;ratioP2
25107;SDS011;13090;53.422;7.670;2022-12-18T00:03:27;72.03;;;28.55;;
25107;SDS011;13090;53.422;7.670;2022-12-18T00:08:29;73.47;;;28.85;;
25107;SDS011;13090;53.422;7.670;2022-12-18T00:13:31;78.63;;;29.77;;
25107;SDS011;13090;53.422;7.670;2022-12-18T00:18:35;82.22;;;30.38;;
25107;SDS011;13090;53.422;7.670;2022-12-18T00:23:39;78.10;;;27.55;;
25107;SDS011;13090;53.422;7.670;2022-12-18T00:28:43;82.40;;;30.85;;
25107;SDS011;13090;53.422;7.670;2022-12-18T00:33:48;79.00;;;30.05;;
25107;SDS011;13090;53.422;7.670;2022-12-18T00:38:56;77.90;;;29.23;;
25107;SDS011;13090;53.422;7.670;2022-12-18T00:43:59;82.53;;;30.85;;
25107;SDS011;13090;53.422;7.670;2022-12-18T00:49:03;67.57;;;28.77;;
25107;SDS011;13090;53.422;7.670;2022-12-18T00:54:05;73.25;;;29.40;;
25107;SDS011;13090;53.422;7.670;2022-12-18T00:59:07;70.35;;;27.75;;
25107;SDS011;13090;53.422;7.670;2022-12-18T01:04:11;73.05;;;28.33;;
25107;SDS011;13090;53.422;7.670;2022-12-18T01:09:14;69.63;;;28.33;;
25107;SDS011;13090;53.422;7.670;2022-12-18T01:14:16;71.45;;;29.00;;
25107;SDS011;13090;53.422;7.670;2022-12-18T01:19:20;69.93;;;29.20;;
25107;SDS011;13090;53.422;7.670;2022-12-18T01:24:22;70.07;;;27.15;;
25107;SDS011;13090;53.422;7.670;2022-12-18T01:29:24;64.03;;;28.42;;
25107;SDS011;13090;53.422;7.670;2022-12-18T01:34:28;66.20;;;26.67;;
25107;SDS011;13090;53.422;7.670;2022-12-18T01:39:30;64.25;;;28.05;;
25107;SDS011;13090;53.422;7.670;2022-12-18T01:50:08;60.50;;;25.33;;
25107;SDS011;13090;53.422;7.670;2022-12-18T01:55:12;62.33;;;26.08;;
25107;SDS011;13090;53.422;7.670;2022-12-18T02:00:18;61.40;;;27.08;;
25107;SDS011;13090;53.422;7.670;2022-12-18T02:05:25;61.72;;;24.92;;
25107;SDS011;13090;53.422;7.670;2022-12-18T02:10:35;62.50;;;25.10;;
25107;SDS011;13090;53.422;7.670;2022-12-18T02:15:48;63.05;;;25.65;;
25107;SDS011;13090;53.422;7.670;2022-12-18T02:21:00;60.53;;;24.92;;
25107;SDS011;13090;53.422;7.670;2022-12-18T02:26:16;64.90;;;25.85;;
25107;SDS011;13090;53.422;7.670;2022-12-18T02:31:23;60.83;;;26.33;;
25107;SDS011;13090;53.422;7.670;2022-12-18T02:36:28;59.78;;;25.23;;
25107;SDS011;13090;53.422;7.670;2022-12-18T02:41:35;63.55;;;27.25;;
25107;SDS011;13090;53.422;7.670;2022-12-18T02:46:38;75.32;;;28.33;;
25107;SDS011;13090;53.422;7.670;2022-12-18T02:51:46;64.60;;;25.10;;
25107;SDS011;13090;53.422;7.670;2022-12-18T02:56:55;65.00;;;25.25;;
25107;SDS011;13090;53.422;7.670;2022-12-18T03:02:02;58.05;;;24.70;;
25107;SDS011;13090;53.422;7.670;2022-12-18T03:07:09;61.03;;;25.17;;
25107;SDS011;13090;53.422;7.670;2022-12-18T03:12:18;64.57;;;25.63;;
25107;SDS011;13090;53.422;7.670;2022-12-18T03:17:26;57.78;;;23.27;;
25107;SDS011;13090;53.422;7.670;2022-12-18T03:22:32;59.10;;;26.70;;
25107;SDS011;13090;53.422;7.670;2022-12-18T03:27:37;55.53;;;23.88;;
25107;SDS011;13090;53.422;7.670;2022-12-18T03:32:42;58.08;;;22.42;;
25107;SDS011;13090;53.422;7.670;2022-12-18T03:42:52;58.47;;;23.15;;
25107;SDS011;13090;53.422;7.670;2022-12-18T03:48:01;62.88;;;23.92;;
25107;SDS011;13090;53.422;7.670;2022-12-18T03:53:15;60.22;;;24.35;;
25107;SDS011;13090;53.422;7.670;2022-12-18T04:03:30;62.88;;;24.52;;
25107;SDS011;13090;53.422;7.670;2022-12-18T04:08:36;65.60;;;25.23;;
25107;SDS011;13090;53.422;7.670;2022-12-18T04:13:41;58.13;;;23.40;;
25107;SDS011;13090;53.422;7.670;2022-12-18T04:18:44;60.67;;;25.33;;
25107;SDS011;13090;53.422;7.670;2022-12-18T04:23:46;61.08;;;23.65;;
25107;SDS011;13090;53.422;7.670;2022-12-18T04:28:50;62.13;;;23.75;;
25107;SDS011;13090;53.422;7.670;2022-12-18T04:33:52;61.03;;;22.17;;
25107;SDS011;13090;53.422;7.670;2022-12-18T04:38:54;58.45;;;22.63;;
25107;SDS011;13090;53.422;7.670;2022-12-18T04:43:58;59.42;;;21.73;;
25107;SDS011;13090;53.422;7.670;2022-12-18T04:49:00;58.42;;;22.60;;
25107;SDS011;13090;53.422;7.670;2022-12-18T04:54:02;56.55;;;21.05;;
25107;SDS011;13090;53.422;7.670;2022-12-18T04:59:06;56.50;;;21.20;;
25107;SDS011;13090;53.422;7.670;2022-12-18T05:04:08;51.78;;;20.15;;
25107;SDS011;13090;53.422;7.670;2022-12-18T05:09:10;60.00;;;22.42;;
25107;SDS011;13090;53.422;7.670;2022-12-18T05:14:14;52.70;;;19.60;;
25107;SDS011;13090;53.422;7.670;2022-12-18T05:19:16;48.95;;;20.40;;
25107;SDS011;13090;53.422;7.670;2022-12-18T05:24:19;47.60;;;20.10;;
25107;SDS011;13090;53.422;7.670;2022-12-18T05:29:22;40.53;;;18.25;;
25107;SDS011;13090;53.422;7.670;2022-12-18T05:34:24;45.13;;;19.35;;
25107;SDS011;13090;53.422;7.670;2022-12-18T05:39:27;42.47;;;17.67;;
25107;SDS011;13090;53.422;7.670;2022-12-18T05:44:30;44.65;;;18.02;;
25107;SDS011;13090;53.422;7.670;2022-12-18T05:49:32;38.33;;;16.77;;
25107;SDS011;13090;53.422;7.670;2022-12-18T05:54:34;37.25;;;16.02;;
25107;SDS011;13090;53.422;7.670;2022-12-18T05:59:40;39.90;;;16.63;;
25107;SDS011;13090;53.422;7.670;2022-12-18T06:04:42;52.58;;;24.98;;
25107;SDS011;13090;53.422;7.670;2022-12-18T06:09:44;40.85;;;17.38;;
25107;SDS011;13090;53.422;7.670;2022-12-18T06:14:47;30.52;;;15.90;;
25107;SDS011;13090;53.422;7.670;2022-12-18T06:19:50;34.67;;;16.27;;
25107;SDS011;13090;53.422;7.670;2022-12-18T06:24:52;30.90;;;16.33;;
25107;SDS011;13090;53.422;7.670;2022-12-18T06:29:56;31.38;;;14.40;;
25107;SDS011;13090;53.422;7.670;2022-12-18T06:34:58;32.33;;;14.32;;
25107;SDS011;13090;53.422;7.670;2022-12-18T06:40:00;30.95;;;13.85;;
25107;SDS011;13090;53.422;7.670;2022-12-18T06:45:04;35.92;;;17.40;;
25107;SDS011;13090;53.422;7.670;2022-12-18T06:50:07;29.90;;;15.25;;
25107;SDS011;13090;53.422;7.670;2022-12-18T06:55:09;28.13;;;14.80;;
25107;SDS011;13090;53.422;7.670;2022-12-18T07:00:14;29.52;;;14.30;;
25107;SDS011;13090;53.422;7.670;2022-12-18T07:05:16;29.30;;;13.80;;
25107;SDS011;13090;53.422;7.670;2022-12-18T07:10:18;30.50;;;16.00;;
25107;SDS011;13090;53.422;7.670;2022-12-18T07:15:22;24.52;;;12.65;;
25107;SDS011;13090;53.422;7.670;2022-12-18T07:20:24;27.58;;;13.30;;
25107;SDS011;13090;53.422;7.670;2022-12-18T07:25:26;24.30;;;13.60;;
25107;SDS011;13090;53.422;7.670;2022-12-18T07:30:30;25.73;;;13.02;;
25107;SDS011;13090;53.422;7.670;2022-12-18T07:35:32;24.40;;;12.63;;
25107;SDS011;13090;53.422;7.670;2022-12-18T07:40:34;31.08;;;16.77;;
25107;SDS011;13090;53.422;7.670;2022-12-18T07:45:38;29.02;;;15.48;;
25107;SDS011;13090;53.422;7.670;2022-12-18T07:50:40;30.73;;;15.20;;
25107;SDS011;13090;53.422;7.670;2022-12-18T07:55:42;23.15;;;13.70;;
25107;SDS011;13090;53.422;7.670;2022-12-18T08:01:07;33.70;;;18.25;;
25107;SDS011;13090;53.422;7.670;2022-12-18T08:06:11;25.10;;;13.13;;
25107;SDS011;13090;53.422;7.670;2022-12-18T08:11:14;24.55;;;13.30;;
25107;SDS011;13090;53.422;7.670;2022-12-18T08:16:17;21.83;;;12.18;;
25107;SDS011;13090;53.422;7.670;2022-12-18T08:21:22;23.52;;;12.18;;
25107;SDS011;13090;53.422;7.670;2022-12-18T08:26:26;22.42;;;12.55;;
25107;SDS011;13090;53.422;7.670;2022-12-18T08:31:31;24.60;;;13.98;;
25107;SDS011;13090;53.422;7.670;2022-12-18T08:36:33;26.48;;;13.90;;
25107;SDS011;13090;53.422;7.670;2022-12-18T08:41:35;22.35;;;12.85;;
25107;SDS011;13090;53.422;7.670;2022-12-18T08:46:39;20.75;;;12.23;;
25107;SDS011;13090;53.422;7.670;2022-12-18T08:51:43;22.17;;;12.20;;
25107;SDS011;13090;53.422;7.670;2022-12-18T08:56:45;21.40;;;11.30;;
25107;SDS011;13090;53.422;7.670;2022-12-18T09:01:48;23.88;;;12.75;;
25107;SDS011;13090;53.422;7.670;2022-12-18T09:06:51;21.58;;;12.05;;
25107;SDS011;13090;53.422;7.670;2022-12-18T09:11:53;18.35;;;11.00;;
25107;SDS011;13090;53.422;7.670;2022-12-18T09:16:56;21.52;;;11.48;;
25107;SDS011;13090;53.422;7.670;2022-12-18T09:21:59;20.30;;;11.63;;
25107;SDS011;13090;53.422;7.670;2022-12-18T09:27:01;27.77;;;16.52;;
25107;SDS011;13090;53.422;7.670;2022-12-18T09:32:05;20.67;;;12.30;;
25107;SDS011;13090;53.422;7.670;2022-12-18T09:37:08;18.77;;;11.50;;
25107;SDS011;13090;53.422;7.670;2022-12-18T09:42:11;19.83;;;11.07;;
25107;SDS011;13090;53.422;7.670;2022-12-18T09:47:23;23.05;;;10.65;;
25107;SDS011;13090;53.422;7.670;2022-12-18T09:52:30;19.20;;;10.50;;
25107;SDS011;13090;53.422;7.670;2022-12-18T09:57:35;19.33;;;11.57;;
25107;SDS011;13090;53.422;7.670;2022-12-18T10:02:48;19.88;;;10.63;;
25107;SDS011;13090;53.422;7.670;2022-12-18T10:07:53;20.02;;;11.00;;
25107;SDS011;13090;53.422;7.670;2022-12-18T10:13:07;18.20;;;9.50;;
25107;SDS011;13090;53.422;7.670;2022-12-18T10:18:21;17.73;;;9.57;;
25107;SDS011;13090;53.422;7.670;2022-12-18T10:23:32;16.90;;;8.55;;
25107;SDS011;13090;53.422;7.670;2022-12-18T10:28:48;16.33;;;9.07;;
25107;SDS011;13090;53.422;7.670;2022-12-18T10:33:54;15.05;;;8.93;;
25107;SDS011;13090;53.422;7.670;2022-12-18T10:39:03;22.00;;;13.68;;
25107;SDS011;13090;53.422;7.670;2022-12-18T10:44:17;33.10;;;16.60;;
25107;SDS011;13090;53.422;7.670;2022-12-18T10:49:25;28.15;;;15.38;;
25107;SDS011;13090;53.422;7.670;2022-12-18T10:54:29;36.67;;;17.42;;
25107;SDS011;13090;53.422;7.670;2022-12-18T10:59:33;17.75;;;10.90;;
25107;SDS011;13090;53.422;7.670;2022-12-18T11:04:56;16.85;;;9.60;;
25107;SDS011;13090;53.422;7.670;2022-12-18T11:09:59;17.08;;;10.10;;
25107;SDS011;13090;53.422;7.670;2022-12-18T11:15:02;17.63;;;9.52;;
25107;SDS011;13090;53.422;7.670;2022-12-18T11:20:14;15.25;;;8.98;;
25107;SDS011;13090;53.422;7.670;2022-12-18T11:25:25;23.60;;;12.18;;
25107;SDS011;13090;53.422;7.670;2022-12-18T11:30:35;18.05;;;9.18;;
25107;SDS011;13090;53.422;7.670;2022-12-18T11:35:42;15.27;;;9.30;;
25107;SDS011;13090;53.422;7.670;2022-12-18T11:40:50;13.40;;;8.65;;
25107;SDS011;13090;53.422;7.670;2022-12-18T11:45:58;14.30;;;8.57;;
25107;SDS011;13090;53.422;7.670;2022-12-18T11:51:08;14.52;;;8.98;;
25107;SDS011;13090;53.422;7.670;2022-12-18T11:56:24;17.02;;;9.27;;
25107;SDS011;13090;53.422;7.670;2022-12-18T12:01:35;17.10;;;9.43;;
25107;SDS011;13090;53.422;7.670;2022-12-18T12:06:51;17.00;;;9.50;;
25107;SDS011;13090;53.422;7.670;2022-12-18T12:12:09;15.60;;;9.20;;
25107;SDS011;13090;53.422;7.670;2022-12-18T12:17:27;13.60;;;9.40;;
25107;SDS011;13090;53.422;7.670;2022-12-18T12:22:39;18.77;;;8.85;;
25107;SDS011;13090;53.422;7.670;2022-12-18T12:27:50;16.67;;;9.93;;
25107;SDS011;13090;53.422;7.670;2022-12-18T12:33:05;14.82;;;9.43;;
25107;SDS011;13090;53.422;7.670;2022-12-18T12:38:21;14.67;;;8.73;;
25107;SDS011;13090;53.422;7.670;2022-12-18T12:43:28;16.13;;;9.10;;
25107;SDS011;13090;53.422;7.670;2022-12-18T12:48:39;15.15;;;9.05;;
25107;SDS011;13090;53.422;7.670;2022-12-18T12:53:48;14.48;;;8.65;;
25107;SDS011;13090;53.422;7.670;2022-12-18T12:58:53;14.80;;;9.52;;
25107;SDS011;13090;53.422;7.670;2022-12-18T13:04:05;16.83;;;10.20;;
25107;SDS011;13090;53.422;7.670;2022-12-18T13:09:18;18.58;;;9.30;;
25107;SDS011;13090;53.422;7.670;2022-12-18T13:14:22;18.23;;;9.35;;
25107;SDS011;13090;53.422;7.670;2022-12-18T13:19:27;17.38;;;9.55;;
25107;SDS011;13090;53.422;7.670;2022-12-18T13:24:30;15.68;;;8.55;;
25107;SDS011;13090;53.422;7.670;2022-12-18T13:29:42;14.13;;;8.75;;
25107;SDS011;13090;53.422;7.670;2022-12-18T13:34:46;14.57;;;8.98;;
25107;SDS011;13090;53.422;7.670;2022-12-18T13:39:49;16.35;;;9.38;;
25107;SDS011;13090;53.422;7.670;2022-12-18T13:44:52;14.52;;;8.35;;
25107;SDS011;13090;53.422;7.670;2022-12-18T13:49:54;15.10;;;8.70;;
25107;SDS011;13090;53.422;7.670;2022-12-18T13:54:59;17.45;;;9.27;;
25107;SDS011;13090;53.422;7.670;2022-12-18T14:00:16;15.15;;;9.10;;
25107;SDS011;13090;53.422;7.670;2022-12-18T14:05:27;15.32;;;8.77;;
25107;SDS011;13090;53.422;7.670;2022-12-18T14:10:32;15.93;;;9.25;;
25107;SDS011;13090;53.422;7.670;2022-12-18T14:15:49;16.48;;;8.98;;
25107;SDS011;13090;53.422;7.670;2022-12-18T14:20:53;17.38;;;9.40;;
25107;SDS011;13090;53.422;7.670;2022-12-18T14:25:59;18.42;;;9.75;;
25107;SDS011;13090;53.422;7.670;2022-12-18T14:31:15;16.88;;;9.05;;
25107;SDS011;13090;53.422;7.670;2022-12-18T14:36:20;16.10;;;8.63;;
25107;SDS011;13090;53.422;7.670;2022-12-18T14:41:28;16.85;;;9.40;;
25107;SDS011;13090;53.422;7.670;2022-12-18T14:46:32;12.93;;;7.90;;
25107;SDS011;13090;53.422;7.670;2022-12-18T14:51:36;13.43;;;8.37;;
25107;SDS011;13090;53.422;7.670;2022-12-18T14:56:43;19.25;;;10.73;;
25107;SDS011;13090;53.422;7.670;2022-12-18T15:01:49;17.55;;;9.77;;
25107;SDS011;13090;53.422;7.670;2022-12-18T15:07:04;17.25;;;9.55;;
25107;SDS011;13090;53.422;7.670;2022-12-18T15:12:22;15.18;;;8.88;;
25107;SDS011;13090;53.422;7.670;2022-12-18T15:17:29;15.75;;;9.52;;
25107;SDS011;13090;53.422;7.670;2022-12-18T15:22:33;19.02;;;9.40;;
25107;SDS011;13090;53.422;7.670;2022-12-18T15:27:38;15.55;;;8.80;;
25107;SDS011;13090;53.422;7.670;2022-12-18T15:32:47;15.15;;;9.13;;
25107;SDS011;13090;53.422;7.670;2022-12-18T15:37:50;14.65;;;9.07;;
25107;SDS011;13090;53.422;7.670;2022-12-18T15:42:54;18.20;;;10.27;;
25107;SDS011;13090;53.422;7.670;2022-12-18T15:47:57;14.80;;;8.80;;
25107;SDS011;13090;53.422;7.670;2022-12-18T15:52:59;18.63;;;9.50;;
25107;SDS011;13090;53.422;7.670;2022-12-18T15:58:04;15.60;;;9.25;;
25107;SDS011;13090;53.422;7.670;2022-12-18T16:03:06;14.73;;;8.68;;
25107;SDS011;13090;53.422;7.670;2022-12-18T16:08:09;13.65;;;8.13;;
25107;SDS011;13090;53.422;7.670;2022-12-18T16:13:14;16.25;;;9.02;;
25107;SDS011;13090;53.422;7.670;2022-12-18T16:18:19;18.80;;;8.25;;
25107;SDS011;13090;53.422;7.670;2022-12-18T16:23:22;11.95;;;8.15;;
25107;SDS011;13090;53.422;7.670;2022-12-18T16:28:25;12.27;;;7.55;;
25107;SDS011;13090;53.422;7.670;2022-12-18T16:33:27;12.20;;;7.18;;
25107;SDS011;13090;53.422;7.670;2022-12-18T16:38:30;13.25;;;7.32;;
25107;SDS011;13090;53.422;7.670;2022-12-18T16:43:33;13.25;;;7.28;;
25107;SDS011;13090;53.422;7.670;2022-12-18T16:48:35;11.25;;;7.40;;
25107;SDS011;13090;53.422;7.670;2022-12-18T16:53:37;10.77;;;6.50;;
25107;SDS011;13090;53.422;7.670;2022-12-18T16:58:41;9.43;;;6.05;;
25107;SDS011;13090;53.422;7.670;2022-12-18T17:03:46;10.82;;;6.75;;
25107;SDS011;13090;53.422;7.670;2022-12-18T17:08:54;11.18;;;7.15;;
25107;SDS011;13090;53.422;7.670;2022-12-18T17:13:58;11.68;;;6.40;;
25107;SDS011;13090;53.422;7.670;2022-12-18T17:19:02;11.57;;;6.15;;
25107;SDS011;13090;53.422;7.670;2022-12-18T17:24:04;12.93;;;6.78;;
25107;SDS011;13090;53.422;7.670;2022-12-18T17:29:08;10.90;;;6.47;;
25107;SDS011;13090;53.422;7.670;2022-12-18T17:39:17;10.95;;;6.38;;
25107;SDS011;13090;53.422;7.670;2022-12-18T17:44:22;10.95;;;6.38;;
25107;SDS011;13090;53.422;7.670;2022-12-18T17:49:24;12.10;;;6.90;;
25107;SDS011;13090;53.422;7.670;2022-12-18T17:54:26;11.02;;;5.93;;
25107;SDS011;13090;53.422;7.670;2022-12-18T17:59:30;13.32;;;6.15;;
25107;SDS011;13090;53.422;7.670;2022-12-18T18:04:32;9.25;;;6.50;;
25107;SDS011;13090;53.422;7.670;2022-12-18T18:09:34;8.88;;;5.82;;
25107;SDS011;13090;53.422;7.670;2022-12-18T18:14:38;12.77;;;6.40;;
25107;SDS011;13090;53.422;7.670;2022-12-18T18:19:41;10.43;;;6.53;;
25107;SDS011;13090;53.422;7.670;2022-12-18T18:24:47;8.88;;;5.85;;
25107;SDS011;13090;53.422;7.670;2022-12-18T18:29:51;10.20;;;6.45;;
25107;SDS011;13090;53.422;7.670;2022-12-18T18:34:53;10.65;;;6.22;;
25107;SDS011;13090;53.422;7.670;2022-12-18T18:39:55;8.25;;;5.57;;
25107;SDS011;13090;53.422;7.670;2022-12-18T18:44:59;10.20;;;5.95;;
25107;SDS011;13090;53.422;7.670;2022-12-18T18:50:01;9.70;;;5.93;;
25107;SDS011;13090;53.422;7.670;2022-12-18T18:55:04;9.85;;;5.93;;
25107;SDS011;13090;53.422;7.670;2022-12-18T19:00:27;9.15;;;5.53;;
25107;SDS011;13090;53.422;7.670;2022-12-18T19:05:29;7.88;;;5.50;;
25107;SDS011;13090;53.422;7.670;2022-12-18T19:10:32;8.93;;;5.63;;
25107;SDS011;13090;53.422;7.670;2022-12-18T19:15:35;7.43;;;5.30;;
25107;SDS011;13090;53.422;7.670;2022-12-18T19:20:38;11.57;;;5.55;;
25107;SDS011;13090;53.422;7.670;2022-12-18T19:25:40;8.35;;;5.40;;
25107;SDS011;13090;53.422;7.670;2022-12-18T19:30:44;10.88;;;5.80;;
25107;SDS011;13090;53.422;7.670;2022-12-18T19:35:47;11.63;;;5.68;;
25107;SDS011;13090;53.422;7.670;2022-12-18T19:40:49;13.85;;;6.10;;
25107;SDS011;13090;53.422;7.670;2022-12-18T19:45:54;16.45;;;7.07;;
25107;SDS011;13090;53.422;7.670;2022-12-18T19:50:57;10.43;;;6.13;;
25107;SDS011;13090;53.422;7.670;2022-12-18T19:56:03;13.75;;;7.05;;
25107;SDS011;13090;53.422;7.670;2022-12-18T20:01:08;12.43;;;7.28;;
25107;SDS011;13090;53.422;7.670;2022-12-18T20:06:14;11.50;;;7.15;;
25107;SDS011;13090;53.422;7.670;2022-12-18T20:11:20;11.13;;;6.47;;
25107;SDS011;13090;53.422;7.670;2022-12-18T20:16:24;9.35;;;5.80;;
25107;SDS011;13090;53.422;7.670;2022-12-18T20:21:27;9.52;;;6.50;;
25107;SDS011;13090;53.422;7.670;2022-12-18T20:26:29;12.00;;;6.82;;
25107;SDS011;13090;53.422;7.670;2022-12-18T20:31:33;10.02;;;5.95;;
25107;SDS011;13090;53.422;7.670;2022-12-18T20:36:35;10.50;;;5.93;;
25107;SDS011;13090;53.422;7.670;2022-12-18T20:41:40;10.57;;;6.35;;
25107;SDS011;13090;53.422;7.670;2022-12-18T20:46:43;11.85;;;5.82;;
25107;SDS011;13090;53.422;7.670;2022-12-18T20:51:48;8.85;;;5.97;;
25107;SDS011;13090;53.422;7.670;2022-12-18T20:56:50;14.63;;;7.00;;
25107;SDS011;13090;53.422;7.670;2022-12-18T21:01:54;11.82;;;6.72;;
25107;SDS011;13090;53.422;7.670;2022-12-18T21:06:56;11.05;;;6.63;;
25107;SDS011;13090;53.422;7.670;2022-12-18T21:12:03;10.25;;;6.28;;
25107;SDS011;13090;53.422;7.670;2022-12-18T21:17:08;12.95;;;7.20;;
25107;SDS011;13090;53.422;7.670;2022-12-18T21:22:11;15.45;;;8.45;;
25107;SDS011;13090;53.422;7.670;2022-12-18T21:27:13;17.13;;;8.18;;
25107;SDS011;13090;53.422;7.670;2022-12-18T21:32:19;14.63;;;7.00;;
25107;SDS011;13090;53.422;7.670;2022-12-18T21:37:24;13.02;;;8.05;;
25107;SDS011;13090;53.422;7.670;2022-12-18T21:42:26;13.98;;;7.00;;
25107;SDS011;13090;53.422;7.670;2022-12-18T21:47:30;13.60;;;7.85;;
25107;SDS011;13090;53.422;7.670;2022-12-18T21:52:32;13.18;;;7.57;;
25107;SDS011;13090;53.422;7.670;2022-12-18T21:57:34;13.68;;;7.38;;
25107;SDS011;13090;53.422;7.670;2022-12-18T22:02:38;13.55;;;7.47;;
25107;SDS011;13090;53.422;7.670;2022-12-18T22:07:40;13.07;;;7.57;;
25107;SDS011;13090;53.422;7.670;2022-12-18T22:12:42;13.93;;;7.63;;
25107;SDS011;13090;53.422;7.670;2022-12-18T22:17:47;14.13;;;7.75;;
25107;SDS011;13090;53.422;7.670;2022-12-18T22:22:50;14.52;;;8.00;;
25107;SDS011;13090;53.422;7.670;2022-12-18T22:27:52;16.05;;;8.93;;
25107;SDS011;13090;53.422;7.670;2022-12-18T22:32:55;11.55;;;7.25;;
25107;SDS011;13090;53.422;7.670;2022-12-18T22:37:57;14.45;;;8.38;;
25107;SDS011;13090;53.422;7.670;2022-12-18T22:43:00;16.33;;;8.77;;
25107;SDS011;13090;53.422;7.670;2022-12-18T22:48:03;15.23;;;9.57;;
25107;SDS011;13090;53.422;7.670;2022-12-18T22:53:06;17.88;;;9.50;;
25107;SDS011;13090;53.422;7.670;2022-12-18T22:58:08;16.92;;;9.60;;
25107;SDS011;13090;53.422;7.670;2022-12-18T23:03:12;17.58;;;9.77;;
25107;SDS011;13090;53.422;7.670;2022-12-18T23:08:14;17.63;;;10.07;;
25107;SDS011;13090;53.422;7.670;2022-12-18T23:13:16;17.75;;;8.77;;
25107;SDS011;13090;53.422;7.670;2022-12-18T23:18:20;14.15;;;7.05;;
25107;SDS011;13090;53.422;7.670;2022-12-18T23:23:22;18.20;;;10.43;;
25107;SDS011;13090;53.422;7.670;2022-12-18T23:28:24;20.77;;;10.05;;
25107;SDS011;13090;53.422;7.670;2022-12-18T23:33:31;25.92;;;11.68;;
25107;SDS011;13090;53.422;7.670;2022-12-18T23:38:33;20.30;;;11.40;;
25107;SDS011;13090;53.422;7.670;2022-12-18T23:43:36;20.75;;;11.40;;
25107;SDS011;13090;53.422;7.670;2022-12-18T23:48:40;19.42;;;9.82;;
25107;SDS011;13090;53.422;7.670;2022-12-18T23:53:42;22.05;;;11.15;;
25107;SDS011;13090;53.422;7.670;2022-12-18T23:58:45;20.48;;;11.00;;
